createdAt,value
2023-04-15T00:00:15.586Z,565.2308
2023-04-15T00:01:17.934Z,564.6154
2023-04-15T00:02:20.536Z,568.6923
2023-04-15T00:03:23.030Z,569.8333
2023-04-15T00:04:25.042Z,570.1667
2023-04-15T00:05:27.252Z,571.8461
2023-04-15T00:06:29.584Z,571.8461
2023-04-15T00:07:31.933Z,572.2308
2023-04-15T00:08:34.257Z,570.1539
2023-04-15T00:09:36.577Z,566.9231
2023-04-15T00:10:38.917Z,564.5385
2023-04-15T00:11:41.251Z,561.6923
2023-04-15T00:12:43.586Z,561.6154
2023-04-15T00:13:45.905Z,560.0769
2023-04-15T00:14:48.232Z,564.3077
2023-04-15T00:15:50.576Z,561.8461
2023-04-15T00:16:52.912Z,561.6154
2023-04-15T00:17:55.259Z,562.3077
2023-04-15T00:18:57.656Z,563.9231
2023-04-15T00:19:59.886Z,566.6154
2023-04-15T00:21:02.277Z,568.9231
2023-04-15T00:22:04.550Z,569.6154
2023-04-15T00:23:06.898Z,571.3846
2023-04-15T00:24:09.237Z,569.8461
2023-04-15T00:25:11.582Z,569.0769
2023-04-15T00:26:13.917Z,570.6923
2023-04-15T00:27:16.240Z,570.0769
2023-04-15T00:28:18.577Z,570.7692
2023-04-15T00:29:20.907Z,569.7692
2023-04-15T00:30:23.233Z,570.3846
2023-04-15T00:31:25.690Z,570.8461
2023-04-15T00:32:27.937Z,571.7692
2023-04-15T00:33:30.237Z,569.8461
2023-04-15T00:34:32.584Z,570.7692
2023-04-15T00:35:34.907Z,571.3077
2023-04-15T00:36:37.253Z,572.5385
2023-04-15T00:37:39.575Z,571.1539
2023-04-15T00:38:41.914Z,570.6154
2023-04-15T00:39:44.242Z,569.5385
2023-04-15T00:40:46.590Z,569.1539
2023-04-15T00:41:48.928Z,567.3077
2023-04-15T00:42:51.241Z,564.7692
2023-04-15T00:43:53.573Z,563.4615
2023-04-15T00:44:55.905Z,567.0769
2023-04-15T00:45:58.327Z,563.6923
2023-04-15T00:47:00.570Z,562.1539
2023-04-15T00:48:02.918Z,561.7692
2023-04-15T00:49:05.234Z,561.5385
2023-04-15T00:50:07.557Z,560.3077
2023-04-15T00:51:09.923Z,560.8461
2023-04-15T00:52:12.233Z,562.8461
2023-04-15T00:53:14.544Z,560.5385
2023-04-15T00:54:16.873Z,559.3846
2023-04-15T00:55:19.217Z,556.3846
2023-04-15T00:56:21.534Z,555.0769
2023-04-15T00:57:23.890Z,555.9231
2023-04-15T00:58:26.203Z,557.3077
2023-04-15T00:59:28.537Z,558.4615
2023-04-15T01:00:30.865Z,558.0000
2023-04-15T01:01:33.242Z,564.0000
2023-04-15T01:02:35.642Z,565.6154
2023-04-15T01:03:38.118Z,566.6154
2023-04-15T01:04:40.194Z,567.9167
2023-04-15T01:05:42.521Z,563.0000
2023-04-15T01:06:44.861Z,559.3846
2023-04-15T01:07:47.207Z,558.3077
2023-04-15T01:08:49.517Z,555.6923
2023-04-15T01:09:51.848Z,556.1539
2023-04-15T01:10:54.176Z,554.0769
2023-04-15T01:11:56.510Z,551.1539
2023-04-15T01:12:58.855Z,546.3077
2023-04-15T01:14:01.178Z,546.5385
2023-04-15T01:15:03.505Z,545.5385
2023-04-15T01:16:05.874Z,543.2308
2023-04-15T01:17:08.176Z,544.5385
2023-04-15T01:18:10.507Z,542.8461
2023-04-15T01:19:12.832Z,541.8461
2023-04-15T01:20:15.174Z,540.8461
2023-04-15T01:21:17.496Z,542.3077
2023-04-15T01:22:19.835Z,541.8461
2023-04-15T01:23:22.162Z,544.0769
2023-04-15T01:24:24.485Z,545.6923
2023-04-15T01:25:26.830Z,547.0769
2023-04-15T01:26:29.156Z,547.2308
2023-04-15T01:27:31.478Z,546.6923
2023-04-15T01:28:33.810Z,545.2308
2023-04-15T01:29:36.145Z,548.0000
2023-04-15T01:30:38.504Z,546.5385
2023-04-15T01:31:40.841Z,546.0769
2023-04-15T01:32:43.184Z,545.3077
2023-04-15T01:33:45.480Z,544.9231
2023-04-15T01:34:47.804Z,545.6154
2023-04-15T01:35:50.159Z,548.7692
2023-04-15T01:36:52.495Z,549.0769
2023-04-15T01:37:54.805Z,551.3846
2023-04-15T01:38:57.142Z,550.6154
2023-04-15T01:39:59.473Z,548.1539
2023-04-15T01:41:01.866Z,547.0769
2023-04-15T01:42:04.148Z,547.1539
2023-04-15T01:43:06.477Z,543.6923
2023-04-15T01:44:08.817Z,540.2308
2023-04-15T01:45:11.144Z,538.1539
2023-04-15T01:46:13.517Z,537.7692
2023-04-15T01:47:15.806Z,539.0000
2023-04-15T01:48:18.142Z,542.5385
2023-04-15T01:49:20.497Z,542.3077
2023-04-15T01:50:22.813Z,543.7692
2023-04-15T01:51:25.139Z,543.3077
2023-04-15T01:52:27.474Z,540.8461
2023-04-15T01:53:29.808Z,541.4615
2023-04-15T01:54:32.159Z,541.8461
2023-04-15T01:55:34.474Z,541.3077
2023-04-15T01:56:36.828Z,540.0000
2023-04-15T01:57:39.146Z,542.8461
2023-04-15T01:58:41.473Z,548.9231
2023-04-15T01:59:43.814Z,552.3846
2023-04-15T02:00:46.154Z,551.6154
2023-04-15T02:01:48.511Z,544.0000
2023-04-15T02:02:50.856Z,537.3077
2023-04-15T02:03:53.181Z,537.0769
2023-04-15T02:04:55.479Z,534.7692
2023-04-15T02:05:57.817Z,533.6923
2023-04-15T02:07:00.271Z,534.2308
2023-04-15T02:08:02.562Z,534.0000
2023-04-15T02:09:04.893Z,533.6923
2023-04-15T02:10:07.236Z,536.3077
2023-04-15T02:11:09.567Z,540.9231
2023-04-15T02:12:11.927Z,541.1539
2023-04-15T02:13:14.255Z,539.3846
2023-04-15T02:14:16.579Z,538.7692
2023-04-15T02:15:18.917Z,537.3077
2023-04-15T02:16:21.333Z,539.0769
2023-04-15T02:17:23.608Z,538.6154
2023-04-15T02:18:25.937Z,537.6154
2023-04-15T02:19:28.248Z,538.5385
2023-04-15T02:20:30.584Z,538.2308
2023-04-15T02:21:32.924Z,534.3077
2023-04-15T02:22:35.286Z,534.5385
2023-04-15T02:23:37.593Z,533.0769
2023-04-15T02:24:39.925Z,531.5385
2023-04-15T02:25:42.267Z,532.7692
2023-04-15T02:26:44.612Z,533.7273
2023-04-15T02:27:46.974Z,532.6154
2023-04-15T02:28:49.265Z,533.6923
2023-04-15T02:29:51.602Z,535.1539
2023-04-15T02:30:53.946Z,534.5385
2023-04-15T02:31:56.342Z,532.7692
2023-04-15T02:32:58.667Z,530.2308
2023-04-15T02:34:00.944Z,529.3846
2023-04-15T02:35:03.357Z,528.3077
2023-04-15T02:36:05.614Z,526.4615
2023-04-15T02:37:07.952Z,522.8461
2023-04-15T02:38:10.296Z,519.1539
2023-04-15T02:39:12.633Z,516.6154
2023-04-15T02:40:14.970Z,515.3846
2023-04-15T02:41:17.305Z,515.0769
2023-04-15T02:42:19.640Z,516.9231
2023-04-15T02:43:22.092Z,517.3077
2023-04-15T02:44:24.310Z,516.2308
2023-04-15T02:45:26.658Z,518.1539
2023-04-15T02:46:29.095Z,518.8461
2023-04-15T02:47:31.359Z,522.1539
2023-04-15T02:48:33.696Z,521.3077
2023-04-15T02:49:35.993Z,518.0000
2023-04-15T02:50:38.698Z,514.9231
2023-04-15T02:51:40.673Z,513.5833
2023-04-15T02:52:43.008Z,509.8462
2023-04-15T02:53:45.343Z,508.3077
2023-04-15T02:54:47.680Z,513.5385
2023-04-15T02:55:50.039Z,512.1539
2023-04-15T02:56:52.360Z,509.0000
2023-04-15T02:57:54.697Z,508.9231
2023-04-15T02:58:57.037Z,511.2308
2023-04-15T02:59:59.360Z,513.1539
2023-04-15T03:01:01.738Z,516.0769
2023-04-15T03:02:04.069Z,516.7692
2023-04-15T03:03:06.724Z,517.4615
2023-04-15T03:04:08.840Z,516.9167
2023-04-15T03:05:11.055Z,513.8333
2023-04-15T03:06:13.429Z,515.3077
2023-04-15T03:07:15.741Z,514.3077
2023-04-15T03:08:18.070Z,512.6923
2023-04-15T03:09:20.414Z,511.0000
2023-04-15T03:10:22.762Z,510.7692
2023-04-15T03:11:25.097Z,509.7692
2023-04-15T03:12:27.420Z,509.1538
2023-04-15T03:13:29.749Z,511.0000
2023-04-15T03:14:32.117Z,513.3846
2023-04-15T03:15:34.431Z,510.2308
2023-04-15T03:16:36.776Z,506.5385
2023-04-15T03:17:39.134Z,504.8462
2023-04-15T03:18:41.419Z,506.3846
2023-04-15T03:19:43.762Z,506.6923
2023-04-15T03:20:46.128Z,507.3077
2023-04-15T03:21:48.448Z,506.2308
2023-04-15T03:22:50.772Z,504.3846
2023-04-15T03:23:53.206Z,506.0000
2023-04-15T03:24:55.439Z,506.6923
2023-04-15T03:25:57.782Z,508.3846
2023-04-15T03:27:00.139Z,512.6923
2023-04-15T03:28:02.446Z,513.2308
2023-04-15T03:29:04.787Z,513.3077
2023-04-15T03:30:07.125Z,513.3077
2023-04-15T03:31:09.488Z,513.5385
2023-04-15T03:32:11.818Z,513.0769
2023-04-15T03:33:14.129Z,516.5385
2023-04-15T03:34:16.484Z,520.9231
2023-04-15T03:35:18.814Z,522.3077
2023-04-15T03:36:21.160Z,523.8461
2023-04-15T03:37:23.486Z,525.1539
2023-04-15T03:38:25.814Z,524.2308
2023-04-15T03:39:28.146Z,523.3846
2023-04-15T03:40:30.492Z,520.6154
2023-04-15T03:41:32.864Z,516.3846
2023-04-15T03:42:35.171Z,511.0769
2023-04-15T03:43:37.496Z,509.9231
2023-04-15T03:44:39.836Z,510.8462
2023-04-15T03:45:42.191Z,511.2308
2023-04-15T03:46:44.598Z,511.0769
2023-04-15T03:47:46.859Z,512.1539
2023-04-15T03:48:49.193Z,515.7692
2023-04-15T03:49:51.519Z,517.3077
2023-04-15T03:50:53.863Z,520.0000
2023-04-15T03:51:56.192Z,521.6923
2023-04-15T03:52:58.534Z,521.3846
2023-04-15T03:54:00.856Z,523.7692
2023-04-15T03:55:03.211Z,528.1539
2023-04-15T03:56:05.527Z,531.1539
2023-04-15T03:57:07.864Z,533.9231
2023-04-15T03:58:10.208Z,536.0769
2023-04-15T03:59:12.527Z,538.8461
2023-04-15T04:00:14.860Z,542.6154
2023-04-15T04:01:17.201Z,541.0769
2023-04-15T04:02:19.582Z,537.0769
2023-04-15T04:03:22.584Z,534.0769
2023-04-15T04:04:24.331Z,532.4167
2023-04-15T04:05:26.525Z,531.5385
2023-04-15T04:06:28.863Z,532.5385
2023-04-15T04:07:31.220Z,531.6154
2023-04-15T04:08:33.646Z,529.4615
2023-04-15T04:09:35.876Z,528.3077
2023-04-15T04:10:38.245Z,529.0769
2023-04-15T04:11:40.572Z,524.6154
2023-04-15T04:12:42.892Z,521.5385
2023-04-15T04:13:45.245Z,516.6923
2023-04-15T04:14:47.559Z,515.0769
2023-04-15T04:15:49.968Z,514.1539
2023-04-15T04:16:52.251Z,513.3846
2023-04-15T04:17:54.620Z,514.4615
2023-04-15T04:18:56.905Z,511.8462
2023-04-15T04:19:59.243Z,508.1538
2023-04-15T04:21:01.585Z,505.3846
2023-04-15T04:22:03.912Z,506.8462
2023-04-15T04:23:06.237Z,510.1538
2023-04-15T04:24:08.588Z,513.3077
2023-04-15T04:25:10.921Z,514.7692
2023-04-15T04:26:13.291Z,516.7692
2023-04-15T04:27:15.584Z,516.0000
2023-04-15T04:28:17.933Z,512.3077
2023-04-15T04:29:20.263Z,512.7692
2023-04-15T04:30:22.597Z,514.4615
2023-04-15T04:31:24.972Z,515.6923
2023-04-15T04:32:27.306Z,518.0769
2023-04-15T04:33:29.621Z,522.0769
2023-04-15T04:34:31.937Z,523.3077
2023-04-15T04:35:34.277Z,527.8461
2023-04-15T04:36:36.622Z,531.7692
2023-04-15T04:37:38.953Z,535.4615
2023-04-15T04:38:41.293Z,536.5385
2023-04-15T04:39:43.625Z,536.6154
2023-04-15T04:40:45.953Z,536.3846
2023-04-15T04:41:48.294Z,536.1539
2023-04-15T04:42:50.625Z,536.5385
2023-04-15T04:43:52.972Z,535.0769
2023-04-15T04:44:55.293Z,535.1539
2023-04-15T04:45:57.674Z,534.4615
2023-04-15T04:46:59.985Z,531.0769
2023-04-15T04:48:02.317Z,530.3077
2023-04-15T04:49:04.919Z,528.6923
2023-04-15T04:50:06.972Z,528.3333
2023-04-15T04:51:09.308Z,529.2308
2023-04-15T04:52:11.682Z,524.3846
2023-04-15T04:53:14.005Z,522.4615
2023-04-15T04:54:16.320Z,522.2308
2023-04-15T04:55:18.648Z,525.2308
2023-04-15T04:56:20.984Z,528.9231
2023-04-15T04:57:23.313Z,531.8461
2023-04-15T04:58:25.649Z,532.7692
2023-04-15T04:59:27.984Z,533.2308
2023-04-15T05:00:30.325Z,533.8461
2023-04-15T05:01:32.701Z,531.0000
2023-04-15T05:02:35.072Z,530.9231
2023-04-15T05:03:37.406Z,531.2308
2023-04-15T05:04:39.665Z,531.1539
2023-04-15T05:05:42.006Z,528.3846
2023-04-15T05:06:44.337Z,525.3846
2023-04-15T05:07:46.669Z,523.0769
2023-04-15T05:08:49.016Z,521.3846
2023-04-15T05:09:51.345Z,518.6923
2023-04-15T05:10:53.700Z,517.2308
2023-04-15T05:11:56.016Z,516.7692
2023-04-15T05:12:58.350Z,515.3077
2023-04-15T05:14:00.686Z,513.8461
2023-04-15T05:15:03.029Z,511.5385
2023-04-15T05:16:05.448Z,511.3077
2023-04-15T05:17:07.705Z,514.1539
2023-04-15T05:18:10.038Z,514.1539
2023-04-15T05:19:12.374Z,511.1538
2023-04-15T05:20:14.708Z,508.6923
2023-04-15T05:21:17.059Z,504.5385
2023-04-15T05:22:19.388Z,505.8462
2023-04-15T05:23:21.721Z,508.8462
2023-04-15T05:24:24.066Z,510.3077
2023-04-15T05:25:26.394Z,511.5385
2023-04-15T05:26:28.739Z,513.8461
2023-04-15T05:27:31.074Z,516.7692
2023-04-15T05:28:33.407Z,518.9231
2023-04-15T05:29:35.741Z,520.0769
2023-04-15T05:30:38.189Z,524.5385
2023-04-15T05:31:40.590Z,527.3077
2023-04-15T05:32:42.781Z,524.7692
2023-04-15T05:33:45.084Z,523.6154
2023-04-15T05:34:47.421Z,523.3846
2023-04-15T05:35:49.754Z,521.5385
2023-04-15T05:36:52.098Z,516.6154
2023-04-15T05:37:54.436Z,515.3077
2023-04-15T05:38:56.755Z,514.3846
2023-04-15T05:39:59.095Z,511.0769
2023-04-15T05:41:01.428Z,511.4615
2023-04-15T05:42:03.782Z,514.0000
2023-04-15T05:43:06.114Z,513.7692
2023-04-15T05:44:08.440Z,514.3846
2023-04-15T05:45:10.776Z,515.9231
2023-04-15T05:46:13.180Z,516.0769
2023-04-15T05:47:15.553Z,518.1539
2023-04-15T05:48:17.794Z,520.2308
2023-04-15T05:49:20.125Z,521.3846
2023-04-15T05:50:22.467Z,524.4615
2023-04-15T05:51:24.815Z,522.8461
2023-04-15T05:52:27.142Z,521.0000
2023-04-15T05:53:29.483Z,520.4615
2023-04-15T05:54:31.811Z,521.6154
2023-04-15T05:55:34.144Z,523.1539
2023-04-15T05:56:36.493Z,523.6154
2023-04-15T05:57:38.827Z,524.0000
2023-04-15T05:58:41.152Z,524.0769
2023-04-15T05:59:43.485Z,521.6667
2023-04-15T06:00:45.826Z,514.9231
2023-04-15T06:01:48.284Z,512.3846
2023-04-15T06:02:50.654Z,512.0769
2023-04-15T06:03:52.972Z,508.5385
2023-04-15T06:04:55.193Z,505.6923
2023-04-15T06:05:57.516Z,501.6923
2023-04-15T06:06:59.847Z,498.9231
2023-04-15T06:08:02.190Z,498.6923
2023-04-15T06:09:04.702Z,500.7692
2023-04-15T06:10:06.869Z,501.0769
2023-04-15T06:11:09.190Z,500.1538
2023-04-15T06:12:11.622Z,500.3846
2023-04-15T06:13:13.949Z,498.8462
2023-04-15T06:14:16.268Z,498.0000
2023-04-15T06:15:18.602Z,500.6923
2023-04-15T06:16:20.979Z,501.6154
2023-04-15T06:17:23.301Z,501.7692
2023-04-15T06:18:25.615Z,504.5385
2023-04-15T06:19:27.941Z,509.7692
2023-04-15T06:20:30.292Z,511.6154
2023-04-15T06:21:32.607Z,509.6154
2023-04-15T06:22:34.952Z,511.8462
2023-04-15T06:23:37.281Z,510.7692
2023-04-15T06:24:39.709Z,510.5385
2023-04-15T06:25:41.957Z,510.9231
2023-04-15T06:26:44.280Z,506.2308
2023-04-15T06:27:46.625Z,507.2308
2023-04-15T06:28:48.954Z,505.5385
2023-04-15T06:29:51.319Z,505.0000
2023-04-15T06:30:53.617Z,505.7692
2023-04-15T06:31:55.981Z,508.0769
2023-04-15T06:32:58.323Z,507.4615
2023-04-15T06:34:00.626Z,509.5385
2023-04-15T06:35:02.998Z,511.8462
2023-04-15T06:36:05.300Z,511.5385
2023-04-15T06:37:07.637Z,512.6154
2023-04-15T06:38:09.977Z,513.6154
2023-04-15T06:39:12.320Z,518.1539
2023-04-15T06:40:14.681Z,521.6923
2023-04-15T06:41:16.979Z,516.6154
2023-04-15T06:42:19.314Z,514.2308
2023-04-15T06:43:21.649Z,512.3846
2023-04-15T06:44:23.988Z,511.8462
2023-04-15T06:45:26.375Z,510.3846
2023-04-15T06:46:28.670Z,505.6923
2023-04-15T06:47:31.061Z,504.6923
2023-04-15T06:48:33.346Z,505.1538
2023-04-15T06:49:35.684Z,504.9231
2023-04-15T06:50:38.023Z,503.6154
2023-04-15T06:51:40.354Z,503.1538
2023-04-15T06:52:42.696Z,501.5385
2023-04-15T06:53:45.031Z,500.0769
2023-04-15T06:54:47.370Z,500.3846
2023-04-15T06:55:49.726Z,500.0000
2023-04-15T06:56:52.040Z,500.6154
2023-04-15T06:57:54.404Z,501.6923
2023-04-15T06:58:56.716Z,504.7692
2023-04-15T06:59:59.056Z,505.5385
2023-04-15T07:01:01.419Z,506.0000
2023-04-15T07:02:03.758Z,504.8462
2023-04-15T07:03:06.110Z,502.6154
2023-04-15T07:04:08.449Z,502.0769
2023-04-15T07:05:10.754Z,503.5385
2023-04-15T07:06:13.110Z,504.3077
2023-04-15T07:07:15.426Z,504.3077
2023-04-15T07:08:17.760Z,501.2308
2023-04-15T07:09:20.091Z,499.6154
2023-04-15T07:10:23.916Z,500.0769
2023-04-15T07:11:24.880Z,496.1667
2023-04-15T07:12:27.115Z,496.9231
2023-04-15T07:13:29.476Z,497.4615
2023-04-15T07:14:31.788Z,496.0000
2023-04-15T07:15:34.134Z,496.0000
2023-04-15T07:16:36.516Z,497.6154
2023-04-15T07:17:38.840Z,498.5385
2023-04-15T07:18:41.141Z,502.0000
2023-04-15T07:19:43.482Z,506.0769
2023-04-15T07:20:45.821Z,505.3846
2023-04-15T07:21:48.173Z,502.6923
2023-04-15T07:22:50.492Z,499.3846
2023-04-15T07:23:52.862Z,496.6154
2023-04-15T07:24:55.177Z,494.3846
2023-04-15T07:25:57.508Z,495.8462
2023-04-15T07:27:01.021Z,495.0769
2023-04-15T07:28:02.169Z,495.0000
2023-04-15T07:29:04.516Z,493.0000
2023-04-15T07:30:06.855Z,491.3846
2023-04-15T07:31:09.261Z,489.7692
2023-04-15T07:32:11.538Z,488.6154
2023-04-15T07:33:13.863Z,487.0000
2023-04-15T07:34:16.207Z,489.5385
2023-04-15T07:35:18.542Z,490.7692
2023-04-15T07:36:20.888Z,489.3846
2023-04-15T07:37:23.240Z,488.6154
2023-04-15T07:38:25.576Z,495.0000
2023-04-15T07:39:27.912Z,498.3077
2023-04-15T07:40:30.249Z,497.8462
2023-04-15T07:41:32.578Z,495.5385
2023-04-15T07:42:34.954Z,492.0000
2023-04-15T07:43:37.264Z,491.3077
2023-04-15T07:44:39.596Z,491.2308
2023-04-15T07:45:41.935Z,492.1538
2023-04-15T07:46:44.271Z,495.1538
2023-04-15T07:47:46.651Z,498.3846
2023-04-15T07:48:48.941Z,500.3077
2023-04-15T07:49:51.275Z,502.2308
2023-04-15T07:50:53.638Z,502.9231
2023-04-15T07:51:55.968Z,501.7692
2023-04-15T07:52:58.296Z,499.6923
2023-04-15T07:54:00.631Z,495.9231
2023-04-15T07:55:02.966Z,493.6154
2023-04-15T07:56:05.306Z,490.0769
2023-04-15T07:57:07.654Z,486.8462
2023-04-15T07:58:09.982Z,484.3077
2023-04-15T07:59:12.324Z,484.3077
2023-04-15T08:00:14.659Z,484.1538
2023-04-15T08:01:17.000Z,482.9231
2023-04-15T08:02:19.421Z,480.6923
2023-04-15T08:03:21.732Z,477.1538
2023-04-15T08:04:24.123Z,476.5385
2023-04-15T08:05:26.363Z,478.4615
2023-04-15T08:06:28.703Z,477.0769
2023-04-15T08:07:31.032Z,476.0000
2023-04-15T08:08:33.409Z,478.8462
2023-04-15T08:09:35.749Z,480.1538
2023-04-15T08:10:38.046Z,481.4615
2023-04-15T08:11:40.386Z,484.3846
2023-04-15T08:12:42.727Z,485.8462
2023-04-15T08:13:45.059Z,486.8462
2023-04-15T08:14:47.409Z,488.6923
2023-04-15T08:15:49.786Z,489.0769
2023-04-15T08:16:52.080Z,490.6154
2023-04-15T08:17:54.468Z,489.3846
2023-04-15T08:18:56.774Z,487.8462
2023-04-15T08:19:59.119Z,484.7692
2023-04-15T08:21:01.423Z,481.1538
2023-04-15T08:22:03.784Z,480.6923
2023-04-15T08:23:06.103Z,482.3333
2023-04-15T08:24:08.499Z,482.9231
2023-04-15T08:25:10.782Z,481.3846
2023-04-15T08:26:13.131Z,478.3077
2023-04-15T08:27:15.473Z,475.1538
2023-04-15T08:28:17.802Z,473.3846
2023-04-15T08:29:20.144Z,473.5385
2023-04-15T08:30:22.482Z,475.7692
2023-04-15T08:31:24.853Z,476.6154
2023-04-15T08:32:27.184Z,476.4615
2023-04-15T08:33:29.515Z,475.6923
2023-04-15T08:34:31.853Z,476.3846
2023-04-15T08:35:34.169Z,477.2308
2023-04-15T08:36:36.507Z,476.0000
2023-04-15T08:37:38.847Z,475.0769
2023-04-15T08:38:41.179Z,475.1538
2023-04-15T08:39:43.528Z,473.0769
2023-04-15T08:40:45.862Z,474.1538
2023-04-15T08:41:48.194Z,475.8462
2023-04-15T08:42:51.192Z,477.0000
2023-04-15T08:43:52.892Z,476.3333
2023-04-15T08:44:55.215Z,474.3846
2023-04-15T08:45:57.619Z,472.9231
2023-04-15T08:46:59.957Z,473.4615
2023-04-15T08:48:02.381Z,473.5385
2023-04-15T08:49:04.841Z,473.4167
2023-04-15T08:50:06.908Z,475.5833
2023-04-15T08:51:09.263Z,477.7692
2023-04-15T08:52:11.586Z,476.2308
2023-04-15T08:53:13.931Z,476.7692
2023-04-15T08:54:16.269Z,474.2308
2023-04-15T08:55:18.622Z,472.3077
2023-04-15T08:56:21.278Z,471.6154
2023-04-15T08:57:23.287Z,470.8333
2023-04-15T08:58:25.629Z,471.6154
2023-04-15T08:59:27.962Z,468.7692
2023-04-15T09:00:30.452Z,467.9231
2023-04-15T09:01:32.679Z,470.7692
2023-04-15T09:02:35.052Z,470.1538
2023-04-15T09:03:37.481Z,469.7692
2023-04-15T09:04:39.654Z,469.3077
2023-04-15T09:05:41.999Z,468.4615
2023-04-15T09:06:44.390Z,468.0000
2023-04-15T09:07:46.764Z,470.0769
2023-04-15T09:08:49.021Z,470.5385
2023-04-15T09:09:51.364Z,469.6154
2023-04-15T09:10:53.706Z,468.0000
2023-04-15T09:11:56.539Z,464.2308
2023-04-15T09:12:58.389Z,462.8333
2023-04-15T09:14:00.745Z,464.5385
2023-04-15T09:15:03.077Z,466.0000
2023-04-15T09:16:05.434Z,464.0000
2023-04-15T09:17:07.796Z,461.5385
2023-04-15T09:18:10.124Z,459.0000
2023-04-15T09:19:12.420Z,457.9231
2023-04-15T09:20:14.792Z,457.6154
2023-04-15T09:21:17.108Z,456.4615
2023-04-15T09:22:19.466Z,455.6923
2023-04-15T09:23:21.795Z,459.0769
2023-04-15T09:24:24.139Z,455.9231
2023-04-15T09:25:26.478Z,456.3077
2023-04-15T09:26:28.819Z,457.6154
2023-04-15T09:27:31.200Z,457.6923
2023-04-15T09:28:33.501Z,454.5385
2023-04-15T09:29:35.849Z,454.6154
2023-04-15T09:30:38.278Z,455.7692
2023-04-15T09:31:40.550Z,457.3846
2023-04-15T09:32:43.002Z,453.6154
2023-04-15T09:33:45.216Z,453.3077
2023-04-15T09:34:47.551Z,452.2308
2023-04-15T09:35:49.885Z,454.6154
2023-04-15T09:36:52.235Z,454.6154
2023-04-15T09:37:54.573Z,454.5385
2023-04-15T09:38:56.910Z,453.3846
2023-04-15T09:39:59.271Z,452.6154
2023-04-15T09:41:01.599Z,452.1538
2023-04-15T09:42:03.937Z,452.8462
2023-04-15T09:43:06.294Z,454.0769
2023-04-15T09:44:08.622Z,452.5385
2023-04-15T09:45:10.975Z,450.5385
2023-04-15T09:46:13.309Z,451.6923
2023-04-15T09:47:15.655Z,451.3846
2023-04-15T09:48:18.002Z,451.1538
2023-04-15T09:49:20.384Z,452.6154
2023-04-15T09:50:22.681Z,448.6154
2023-04-15T09:51:25.030Z,443.6154
2023-04-15T09:52:27.419Z,445.2308
2023-04-15T09:53:31.249Z,444.7692
2023-04-15T09:54:32.059Z,436.5000
2023-04-15T09:55:34.408Z,438.8462
2023-04-15T09:56:36.747Z,443.4615
2023-04-15T09:57:39.103Z,447.2308
2023-04-15T09:58:41.448Z,449.5385
2023-04-15T09:59:43.775Z,450.7692
2023-04-15T10:00:46.115Z,452.6923
2023-04-15T10:01:48.588Z,453.7692
2023-04-15T10:02:50.920Z,453.3077
2023-04-15T10:03:53.299Z,450.3846
2023-04-15T10:04:55.479Z,447.8462
2023-04-15T10:05:57.821Z,449.0769
2023-04-15T10:07:00.166Z,450.2308
2023-04-15T10:08:02.520Z,450.2308
2023-04-15T10:09:04.862Z,450.9231
2023-04-15T10:10:07.210Z,453.6154
2023-04-15T10:11:09.538Z,454.8462
2023-04-15T10:12:11.866Z,455.8462
2023-04-15T10:13:14.206Z,456.1538
2023-04-15T10:14:16.557Z,456.8462
2023-04-15T10:15:18.887Z,456.4615
2023-04-15T10:16:21.301Z,456.0769
2023-04-15T10:17:23.620Z,457.6923
2023-04-15T10:18:25.979Z,458.2308
2023-04-15T10:19:28.329Z,456.0000
2023-04-15T10:20:30.657Z,456.0769
2023-04-15T10:21:32.987Z,452.4615
2023-04-15T10:22:35.331Z,453.9231
2023-04-15T10:23:37.667Z,458.8462
2023-04-15T10:24:40.019Z,463.6154
2023-04-15T10:25:42.338Z,464.6154
2023-04-15T10:26:44.686Z,464.4615
2023-04-15T10:27:47.022Z,464.4615
2023-04-15T10:28:49.378Z,467.1538
2023-04-15T10:29:51.704Z,467.0000
2023-04-15T10:30:54.062Z,466.5385
2023-04-15T10:31:56.393Z,464.7692
2023-04-15T10:32:58.778Z,465.0769
2023-04-15T10:34:01.390Z,467.5385
2023-04-15T10:35:03.423Z,464.5833
2023-04-15T10:36:05.744Z,463.7692
2023-04-15T10:37:08.071Z,463.2308
2023-04-15T10:38:10.412Z,465.6154
2023-04-15T10:39:12.751Z,472.4615
2023-04-15T10:40:15.109Z,474.6923
2023-04-15T10:41:19.530Z,475.9231
2023-04-15T10:42:19.801Z,474.4167
2023-04-15T10:43:22.110Z,475.3846
2023-04-15T10:44:24.452Z,477.0000
2023-04-15T10:45:26.801Z,479.9231
2023-04-15T10:46:29.188Z,480.3077
2023-04-15T10:47:31.471Z,481.6923
2023-04-15T10:48:33.796Z,484.2308
2023-04-15T10:49:36.146Z,485.7692
2023-04-15T10:50:38.477Z,486.8462
2023-04-15T10:51:40.809Z,485.4615
2023-04-15T10:52:43.152Z,485.3077
2023-04-15T10:53:45.473Z,483.2308
2023-04-15T10:54:47.817Z,480.3846
2023-04-15T10:55:50.174Z,480.6923
2023-04-15T10:56:52.503Z,479.6923
2023-04-15T10:57:54.828Z,479.8462
2023-04-15T10:58:57.163Z,478.6923
2023-04-15T10:59:59.509Z,481.3846
2023-04-15T11:01:01.934Z,483.1538
2023-04-15T11:02:04.332Z,482.7692
2023-04-15T11:03:06.738Z,480.6154
2023-04-15T11:04:09.021Z,482.3846
2023-04-15T11:05:11.181Z,482.0000
2023-04-15T11:06:13.533Z,480.8462
2023-04-15T11:07:15.856Z,481.4615
2023-04-15T11:08:18.194Z,481.2308
2023-04-15T11:09:20.541Z,480.4615
2023-04-15T11:10:22.873Z,479.9231
2023-04-15T11:11:25.345Z,477.5385
2023-04-15T11:12:27.546Z,477.1538
2023-04-15T11:13:29.882Z,476.5385
2023-04-15T11:14:32.214Z,476.2308
2023-04-15T11:15:34.558Z,477.6154
2023-04-15T11:16:36.928Z,479.0000
2023-04-15T11:17:39.256Z,480.5385
2023-04-15T11:18:41.560Z,478.9231
2023-04-15T11:19:43.893Z,479.6154
2023-04-15T11:20:46.228Z,477.7692
2023-04-15T11:21:48.573Z,474.9231
2023-04-15T11:22:50.928Z,474.6154
2023-04-15T11:23:53.242Z,473.9231
2023-04-15T11:24:55.568Z,472.8462
2023-04-15T11:25:57.928Z,473.3077
2023-04-15T11:27:00.239Z,475.4615
2023-04-15T11:28:02.570Z,479.6154
2023-04-15T11:29:05.147Z,478.4615
2023-04-15T11:30:07.241Z,478.4167
2023-04-15T11:31:09.589Z,478.4615
2023-04-15T11:32:12.103Z,479.1538
2023-04-15T11:33:14.261Z,479.4615
2023-04-15T11:34:16.587Z,478.6923
2023-04-15T11:35:18.929Z,477.0000
2023-04-15T11:36:21.268Z,478.4615
2023-04-15T11:37:23.617Z,478.9231
2023-04-15T11:38:25.960Z,478.8462
2023-04-15T11:39:28.276Z,477.0000
2023-04-15T11:40:30.608Z,474.5385
2023-04-15T11:41:32.960Z,474.7692
2023-04-15T11:42:48.757Z,475.3846
2023-04-15T11:43:37.648Z,474.0000
2023-04-15T11:44:39.967Z,472.3077
2023-04-15T11:45:42.336Z,474.3846
2023-04-15T11:46:45.664Z,475.0769
2023-04-15T11:47:47.025Z,474.1667
2023-04-15T11:48:49.318Z,474.6154
2023-04-15T11:49:51.638Z,473.6923
2023-04-15T11:50:53.990Z,471.4615
2023-04-15T11:51:56.331Z,473.0000
2023-04-15T11:52:58.656Z,474.3077
2023-04-15T11:54:01.113Z,477.0000
2023-04-15T11:55:03.344Z,478.3077
2023-04-15T11:56:05.683Z,475.6154
2023-04-15T11:57:08.005Z,475.6154
2023-04-15T11:58:10.356Z,472.3846
2023-04-15T11:59:12.681Z,473.6154
2023-04-15T12:00:15.016Z,475.0000
2023-04-15T12:01:17.372Z,474.7692
2023-04-15T12:02:19.808Z,475.0769
2023-04-15T12:03:22.174Z,469.0000
2023-04-15T12:04:25.872Z,470.9167
2023-04-15T12:05:26.705Z,470.6667
2023-04-15T12:06:29.053Z,471.5385
2023-04-15T12:07:32.166Z,474.9231
2023-04-15T12:08:33.725Z,475.4167
2023-04-15T12:09:36.067Z,476.7692
2023-04-15T12:10:38.396Z,476.3846
2023-04-15T12:11:40.751Z,474.8462